sensor_id;sensor_type;location;lat;lon;timestamp;temperature;humidity
5675;DHT22;2860;54.284;10.158;2024-02-21T00:00:10;7.90;99.90
5675;DHT22;2860;54.284;10.158;2024-02-21T00:02:37;7.80;99.90
5675;DHT22;2860;54.284;10.158;2024-02-21T00:05:02;7.90;99.90
5675;DHT22;2860;54.284;10.158;2024-02-21T00:07:28;7.90;99.90
5675;DHT22;2860;54.284;10.158;2024-02-21T00:09:53;7.90;99.90
5675;DHT22;2860;54.284;10.158;2024-02-21T00:12:19;7.90;99.90
5675;DHT22;2860;54.284;10.158;2024-02-21T00:14:44;7.90;99.90
5675;DHT22;2860;54.284;10.158;2024-02-21T00:17:10;7.90;99.90
5675;DHT22;2860;54.284;10.158;2024-02-21T00:19:36;7.90;99.90
5675;DHT22;2860;54.284;10.158;2024-02-21T00:22:01;7.90;99.90
5675;DHT22;2860;54.284;10.158;2024-02-21T00:24:27;8.00;99.90
5675;DHT22;2860;54.284;10.158;2024-02-21T00:26:53;8.00;99.90
5675;DHT22;2860;54.284;10.158;2024-02-21T00:29:19;8.00;99.90
5675;DHT22;2860;54.284;10.158;2024-02-21T00:31:44;8.00;99.90
5675;DHT22;2860;54.284;10.158;2024-02-21T00:34:10;8.00;99.90
5675;DHT22;2860;54.284;10.158;2024-02-21T00:36:37;8.00;99.90
5675;DHT22;2860;54.284;10.158;2024-02-21T00:39:03;8.00;99.90
5675;DHT22;2860;54.284;10.158;2024-02-21T00:41:29;8.00;99.90
5675;DHT22;2860;54.284;10.158;2024-02-21T00:43:54;8.00;99.90
5675;DHT22;2860;54.284;10.158;2024-02-21T00:46:20;8.00;99.90
5675;DHT22;2860;54.284;10.158;2024-02-21T00:48:45;8.00;99.90
5675;DHT22;2860;54.284;10.158;2024-02-21T00:51:11;8.00;99.90
5675;DHT22;2860;54.284;10.158;2024-02-21T00:53:36;8.00;99.90
5675;DHT22;2860;54.284;10.158;2024-02-21T00:56:07;8.00;99.90
5675;DHT22;2860;54.284;10.158;2024-02-21T00:58:32;8.00;99.90
5675;DHT22;2860;54.284;10.158;2024-02-21T01:00:58;8.00;99.90
5675;DHT22;2860;54.284;10.158;2024-02-21T01:03:23;8.00;99.90
5675;DHT22;2860;54.284;10.158;2024-02-21T01:05:49;8.00;99.90
5675;DHT22;2860;54.284;10.158;2024-02-21T01:08:14;8.10;99.90
5675;DHT22;2860;54.284;10.158;2024-02-21T01:10:40;8.10;99.90
5675;DHT22;2860;54.284;10.158;2024-02-21T01:13:06;8.10;99.90
5675;DHT22;2860;54.284;10.158;2024-02-21T01:15:32;8.10;99.90
5675;DHT22;2860;54.284;10.158;2024-02-21T01:17:58;8.00;99.90
5675;DHT22;2860;54.284;10.158;2024-02-21T01:20:24;8.10;99.90
5675;DHT22;2860;54.284;10.158;2024-02-21T01:22:49;8.00;99.90
5675;DHT22;2860;54.284;10.158;2024-02-21T01:25:15;8.00;99.90
5675;DHT22;2860;54.284;10.158;2024-02-21T01:27:40;8.00;99.90
5675;DHT22;2860;54.284;10.158;2024-02-21T01:30:06;8.00;99.90
5675;DHT22;2860;54.284;10.158;2024-02-21T01:32:32;8.10;99.90
5675;DHT22;2860;54.284;10.158;2024-02-21T01:34:57;8.10;99.90
5675;DHT22;2860;54.284;10.158;2024-02-21T01:37:23;8.10;99.90
5675;DHT22;2860;54.284;10.158;2024-02-21T01:39:48;8.10;99.90
5675;DHT22;2860;54.284;10.158;2024-02-21T01:42:14;8.10;99.90
5675;DHT22;2860;54.284;10.158;2024-02-21T01:44:40;8.10;99.90
5675;DHT22;2860;54.284;10.158;2024-02-21T01:47:07;8.10;99.90
5675;DHT22;2860;54.284;10.158;2024-02-21T01:49:33;8.10;99.90
5675;DHT22;2860;54.284;10.158;2024-02-21T01:51:59;8.10;99.90
5675;DHT22;2860;54.284;10.158;2024-02-21T01:54:25;8.10;99.90
5675;DHT22;2860;54.284;10.158;2024-02-21T01:56:54;8.10;99.90
5675;DHT22;2860;54.284;10.158;2024-02-21T01:59:19;8.10;99.90
5675;DHT22;2860;54.284;10.158;2024-02-21T02:01:46;8.20;99.90
5675;DHT22;2860;54.284;10.158;2024-02-21T02:04:13;8.20;99.90
5675;DHT22;2860;54.284;10.158;2024-02-21T02:06:39;8.20;99.90
5675;DHT22;2860;54.284;10.158;2024-02-21T02:09:05;8.10;99.90
5675;DHT22;2860;54.284;10.158;2024-02-21T02:11:32;8.20;99.90
5675;DHT22;2860;54.284;10.158;2024-02-21T02:13:57;8.10;99.90
5675;DHT22;2860;54.284;10.158;2024-02-21T02:16:23;8.10;99.90
5675;DHT22;2860;54.284;10.158;2024-02-21T02:18:48;8.20;99.90
5675;DHT22;2860;54.284;10.158;2024-02-21T02:21:23;8.20;99.90
5675;DHT22;2860;54.284;10.158;2024-02-21T02:23:49;8.20;99.90
5675;DHT22;2860;54.284;10.158;2024-02-21T02:26:15;8.20;99.90
5675;DHT22;2860;54.284;10.158;2024-02-21T02:28:40;8.20;99.90
5675;DHT22;2860;54.284;10.158;2024-02-21T02:31:06;8.20;99.90
5675;DHT22;2860;54.284;10.158;2024-02-21T02:33:31;8.20;99.90
5675;DHT22;2860;54.284;10.158;2024-02-21T02:35:57;8.20;99.90
5675;DHT22;2860;54.284;10.158;2024-02-21T02:38:24;8.20;99.90
5675;DHT22;2860;54.284;10.158;2024-02-21T02:40:49;8.20;99.90
5675;DHT22;2860;54.284;10.158;2024-02-21T02:43:15;8.30;99.90
5675;DHT22;2860;54.284;10.158;2024-02-21T02:45:40;8.30;99.90
5675;DHT22;2860;54.284;10.158;2024-02-21T02:48:06;8.30;99.90
5675;DHT22;2860;54.284;10.158;2024-02-21T02:50:32;8.30;99.90
5675;DHT22;2860;54.284;10.158;2024-02-21T02:52:57;8.30;99.90
5675;DHT22;2860;54.284;10.158;2024-02-21T02:55:23;8.30;99.90
5675;DHT22;2860;54.284;10.158;2024-02-21T02:57:48;8.30;99.90
5675;DHT22;2860;54.284;10.158;2024-02-21T03:00:15;8.30;99.90
5675;DHT22;2860;54.284;10.158;2024-02-21T03:02:43;8.30;99.90
5675;DHT22;2860;54.284;10.158;2024-02-21T03:05:14;8.30;99.90
5675;DHT22;2860;54.284;10.158;2024-02-21T03:07:40;8.30;99.90
5675;DHT22;2860;54.284;10.158;2024-02-21T03:10:06;8.30;99.90
5675;DHT22;2860;54.284;10.158;2024-02-21T03:12:32;8.30;99.90
5675;DHT22;2860;54.284;10.158;2024-02-21T03:14:57;8.30;99.90
5675;DHT22;2860;54.284;10.158;2024-02-21T03:17:23;8.30;99.90
5675;DHT22;2860;54.284;10.158;2024-02-21T03:19:49;8.30;99.90
5675;DHT22;2860;54.284;10.158;2024-02-21T03:22:15;8.30;99.90
5675;DHT22;2860;54.284;10.158;2024-02-21T03:24:42;8.30;99.90
5675;DHT22;2860;54.284;10.158;2024-02-21T03:27:07;8.30;99.90
5675;DHT22;2860;54.284;10.158;2024-02-21T03:29:33;8.30;99.90
5675;DHT22;2860;54.284;10.158;2024-02-21T03:31:59;8.30;99.90
5675;DHT22;2860;54.284;10.158;2024-02-21T03:34:24;8.30;99.90
5675;DHT22;2860;54.284;10.158;2024-02-21T03:36:50;8.30;99.90
5675;DHT22;2860;54.284;10.158;2024-02-21T03:39:15;8.30;99.90
5675;DHT22;2860;54.284;10.158;2024-02-21T03:41:41;8.30;99.90
5675;DHT22;2860;54.284;10.158;2024-02-21T03:44:06;8.30;99.90
5675;DHT22;2860;54.284;10.158;2024-02-21T03:46:32;8.30;99.90
5675;DHT22;2860;54.284;10.158;2024-02-21T03:48:57;8.30;99.90
5675;DHT22;2860;54.284;10.158;2024-02-21T03:51:23;8.30;99.90
5675;DHT22;2860;54.284;10.158;2024-02-21T03:53:49;8.30;99.90
5675;DHT22;2860;54.284;10.158;2024-02-21T03:56:14;8.20;99.90
5675;DHT22;2860;54.284;10.158;2024-02-21T03:58:40;8.20;99.90
5675;DHT22;2860;54.284;10.158;2024-02-21T04:01:05;8.10;99.90
5675;DHT22;2860;54.284;10.158;2024-02-21T04:03:31;8.10;99.90
5675;DHT22;2860;54.284;10.158;2024-02-21T04:05:57;8.10;99.90
5675;DHT22;2860;54.284;10.158;2024-02-21T04:08:25;8.00;99.90
5675;DHT22;2860;54.284;10.158;2024-02-21T04:10:51;7.90;99.90
5675;DHT22;2860;54.284;10.158;2024-02-21T04:13:16;7.90;99.90
5675;DHT22;2860;54.284;10.158;2024-02-21T04:15:42;7.90;99.90
5675;DHT22;2860;54.284;10.158;2024-02-21T04:18:07;7.80;99.90
5675;DHT22;2860;54.284;10.158;2024-02-21T04:20:34;7.80;99.90
5675;DHT22;2860;54.284;10.158;2024-02-21T04:23:00;7.80;99.90
5675;DHT22;2860;54.284;10.158;2024-02-21T04:25:25;7.70;99.90
5675;DHT22;2860;54.284;10.158;2024-02-21T04:27:51;7.70;99.90
5675;DHT22;2860;54.284;10.158;2024-02-21T04:30:17;7.70;99.90
5675;DHT22;2860;54.284;10.158;2024-02-21T04:32:42;7.70;99.90
5675;DHT22;2860;54.284;10.158;2024-02-21T04:35:08;7.60;99.90
5675;DHT22;2860;54.284;10.158;2024-02-21T04:37:34;7.70;99.90
5675;DHT22;2860;54.284;10.158;2024-02-21T04:39:59;7.60;99.90
5675;DHT22;2860;54.284;10.158;2024-02-21T04:42:25;7.70;99.90
5675;DHT22;2860;54.284;10.158;2024-02-21T04:44:51;7.60;99.90
5675;DHT22;2860;54.284;10.158;2024-02-21T04:47:16;7.60;99.90
5675;DHT22;2860;54.284;10.158;2024-02-21T04:49:42;7.60;99.90
5675;DHT22;2860;54.284;10.158;2024-02-21T04:52:08;7.60;99.90
5675;DHT22;2860;54.284;10.158;2024-02-21T04:54:33;7.60;99.90
5675;DHT22;2860;54.284;10.158;2024-02-21T04:57:00;7.50;99.90
5675;DHT22;2860;54.284;10.158;2024-02-21T04:59:26;7.50;99.90
5675;DHT22;2860;54.284;10.158;2024-02-21T05:01:52;7.50;99.90
5675;DHT22;2860;54.284;10.158;2024-02-21T05:04:17;7.50;99.90
5675;DHT22;2860;54.284;10.158;2024-02-21T05:06:43;7.50;99.90
5675;DHT22;2860;54.284;10.158;2024-02-21T05:09:09;7.50;99.90
5675;DHT22;2860;54.284;10.158;2024-02-21T05:11:35;7.40;99.90
5675;DHT22;2860;54.284;10.158;2024-02-21T05:14:01;7.40;99.90
5675;DHT22;2860;54.284;10.158;2024-02-21T05:16:26;7.40;99.90
5675;DHT22;2860;54.284;10.158;2024-02-21T05:18:52;7.40;99.90
5675;DHT22;2860;54.284;10.158;2024-02-21T05:21:17;7.40;99.90
5675;DHT22;2860;54.284;10.158;2024-02-21T05:23:43;7.40;99.90
5675;DHT22;2860;54.284;10.158;2024-02-21T05:26:08;7.40;99.90
5675;DHT22;2860;54.284;10.158;2024-02-21T05:28:34;7.40;99.90
5675;DHT22;2860;54.284;10.158;2024-02-21T05:30:59;7.40;99.90
5675;DHT22;2860;54.284;10.158;2024-02-21T05:33:26;7.40;99.90
5675;DHT22;2860;54.284;10.158;2024-02-21T05:35:51;7.40;99.90
5675;DHT22;2860;54.284;10.158;2024-02-21T05:38:17;7.40;99.90
5675;DHT22;2860;54.284;10.158;2024-02-21T05:40:44;7.30;99.90
5675;DHT22;2860;54.284;10.158;2024-02-21T05:43:09;7.30;99.90
5675;DHT22;2860;54.284;10.158;2024-02-21T05:45:35;7.30;99.90
5675;DHT22;2860;54.284;10.158;2024-02-21T05:48:01;7.30;99.90
5675;DHT22;2860;54.284;10.158;2024-02-21T05:50:28;7.40;99.90
5675;DHT22;2860;54.284;10.158;2024-02-21T05:52:56;7.30;99.90
5675;DHT22;2860;54.284;10.158;2024-02-21T05:55:22;7.30;99.90
5675;DHT22;2860;54.284;10.158;2024-02-21T05:57:48;7.30;99.90
5675;DHT22;2860;54.284;10.158;2024-02-21T06:00:14;7.30;99.90
5675;DHT22;2860;54.284;10.158;2024-02-21T06:02:39;7.30;99.90
5675;DHT22;2860;54.284;10.158;2024-02-21T06:05:06;7.30;99.90
5675;DHT22;2860;54.284;10.158;2024-02-21T06:07:33;7.30;99.90
5675;DHT22;2860;54.284;10.158;2024-02-21T06:09:58;7.30;99.90
5675;DHT22;2860;54.284;10.158;2024-02-21T06:12:24;7.30;99.90
5675;DHT22;2860;54.284;10.158;2024-02-21T06:14:49;7.30;99.90
5675;DHT22;2860;54.284;10.158;2024-02-21T06:17:15;7.30;99.90
5675;DHT22;2860;54.284;10.158;2024-02-21T06:19:42;7.30;99.90
5675;DHT22;2860;54.284;10.158;2024-02-21T06:22:08;7.30;99.90
5675;DHT22;2860;54.284;10.158;2024-02-21T06:24:35;7.30;99.90
5675;DHT22;2860;54.284;10.158;2024-02-21T06:27:00;7.20;99.90
5675;DHT22;2860;54.284;10.158;2024-02-21T06:29:26;7.20;99.90
5675;DHT22;2860;54.284;10.158;2024-02-21T06:31:51;7.10;99.90
5675;DHT22;2860;54.284;10.158;2024-02-21T06:34:17;7.10;99.90
5675;DHT22;2860;54.284;10.158;2024-02-21T06:36:42;7.10;99.90
5675;DHT22;2860;54.284;10.158;2024-02-21T06:39:08;7.10;99.90
5675;DHT22;2860;54.284;10.158;2024-02-21T06:41:33;7.10;99.90
5675;DHT22;2860;54.284;10.158;2024-02-21T06:43:59;7.10;99.90
5675;DHT22;2860;54.284;10.158;2024-02-21T06:46:29;7.10;99.90
5675;DHT22;2860;54.284;10.158;2024-02-21T06:48:54;7.10;99.90
5675;DHT22;2860;54.284;10.158;2024-02-21T06:51:22;7.00;99.90
5675;DHT22;2860;54.284;10.158;2024-02-21T06:53:48;6.90;99.90
5675;DHT22;2860;54.284;10.158;2024-02-21T06:56:13;6.90;99.90
5675;DHT22;2860;54.284;10.158;2024-02-21T06:58:39;6.90;99.90
5675;DHT22;2860;54.284;10.158;2024-02-21T07:01:04;6.90;99.90
5675;DHT22;2860;54.284;10.158;2024-02-21T07:03:30;6.80;99.90
5675;DHT22;2860;54.284;10.158;2024-02-21T07:05:55;6.80;99.90
5675;DHT22;2860;54.284;10.158;2024-02-21T07:08:21;6.80;99.90
5675;DHT22;2860;54.284;10.158;2024-02-21T07:10:47;6.80;99.90
5675;DHT22;2860;54.284;10.158;2024-02-21T07:13:12;6.80;99.90
5675;DHT22;2860;54.284;10.158;2024-02-21T07:15:38;6.70;99.90
5675;DHT22;2860;54.284;10.158;2024-02-21T07:18:04;6.70;99.90
5675;DHT22;2860;54.284;10.158;2024-02-21T07:20:30;6.70;99.90
5675;DHT22;2860;54.284;10.158;2024-02-21T07:22:55;6.80;99.90
5675;DHT22;2860;54.284;10.158;2024-02-21T07:25:21;6.90;99.90
5675;DHT22;2860;54.284;10.158;2024-02-21T07:27:46;6.90;99.90
5675;DHT22;2860;54.284;10.158;2024-02-21T07:30:12;7.00;99.90
5675;DHT22;2860;54.284;10.158;2024-02-21T07:32:38;7.00;99.90
5675;DHT22;2860;54.284;10.158;2024-02-21T07:35:04;7.00;99.90
5675;DHT22;2860;54.284;10.158;2024-02-21T07:37:30;7.00;99.90
5675;DHT22;2860;54.284;10.158;2024-02-21T07:39:56;7.10;99.90
5675;DHT22;2860;54.284;10.158;2024-02-21T07:42:21;7.10;99.90
5675;DHT22;2860;54.284;10.158;2024-02-21T07:44:47;7.10;99.90
5675;DHT22;2860;54.284;10.158;2024-02-21T07:47:12;7.10;99.90
5675;DHT22;2860;54.284;10.158;2024-02-21T07:49:43;7.10;99.90
5675;DHT22;2860;54.284;10.158;2024-02-21T07:52:09;7.10;99.90
5675;DHT22;2860;54.284;10.158;2024-02-21T07:54:35;7.10;99.90
5675;DHT22;2860;54.284;10.158;2024-02-21T07:57:00;7.00;99.90
5675;DHT22;2860;54.284;10.158;2024-02-21T07:59:26;7.00;99.90
5675;DHT22;2860;54.284;10.158;2024-02-21T08:01:51;7.00;99.90
5675;DHT22;2860;54.284;10.158;2024-02-21T08:04:17;6.90;99.90
5675;DHT22;2860;54.284;10.158;2024-02-21T08:06:42;6.90;99.90
5675;DHT22;2860;54.284;10.158;2024-02-21T08:09:10;6.80;99.90
5675;DHT22;2860;54.284;10.158;2024-02-21T08:11:35;6.80;99.90
5675;DHT22;2860;54.284;10.158;2024-02-21T08:14:01;6.90;99.90
5675;DHT22;2860;54.284;10.158;2024-02-21T08:16:28;6.80;99.90
5675;DHT22;2860;54.284;10.158;2024-02-21T08:18:54;6.80;99.90
5675;DHT22;2860;54.284;10.158;2024-02-21T08:21:19;6.80;99.90
5675;DHT22;2860;54.284;10.158;2024-02-21T08:23:45;6.80;99.90
5675;DHT22;2860;54.284;10.158;2024-02-21T08:26:10;6.90;99.90
5675;DHT22;2860;54.284;10.158;2024-02-21T08:28:36;7.00;99.90
5675;DHT22;2860;54.284;10.158;2024-02-21T08:31:02;7.00;99.90
5675;DHT22;2860;54.284;10.158;2024-02-21T08:33:27;7.10;99.90
5675;DHT22;2860;54.284;10.158;2024-02-21T08:35:55;7.10;99.90
5675;DHT22;2860;54.284;10.158;2024-02-21T08:38:20;7.20;99.90
5675;DHT22;2860;54.284;10.158;2024-02-21T08:40:46;7.20;99.90
5675;DHT22;2860;54.284;10.158;2024-02-21T08:43:12;7.20;99.90
5675;DHT22;2860;54.284;10.158;2024-02-21T08:45:38;7.20;99.90
5675;DHT22;2860;54.284;10.158;2024-02-21T08:48:04;7.30;99.90
5675;DHT22;2860;54.284;10.158;2024-02-21T08:50:29;7.40;99.90
5675;DHT22;2860;54.284;10.158;2024-02-21T08:52:55;7.40;99.90
5675;DHT22;2860;54.284;10.158;2024-02-21T08:55:20;7.40;99.90
5675;DHT22;2860;54.284;10.158;2024-02-21T08:57:46;7.40;99.90
5675;DHT22;2860;54.284;10.158;2024-02-21T09:00:12;7.50;99.90
5675;DHT22;2860;54.284;10.158;2024-02-21T09:02:41;7.50;99.90
5675;DHT22;2860;54.284;10.158;2024-02-21T09:05:12;7.50;99.90
5675;DHT22;2860;54.284;10.158;2024-02-21T09:07:38;7.60;99.90
5675;DHT22;2860;54.284;10.158;2024-02-21T09:10:04;7.60;99.90
5675;DHT22;2860;54.284;10.158;2024-02-21T09:12:30;7.60;99.90
5675;DHT22;2860;54.284;10.158;2024-02-21T09:14:55;7.70;99.90
5675;DHT22;2860;54.284;10.158;2024-02-21T09:17:21;7.90;99.90
5675;DHT22;2860;54.284;10.158;2024-02-21T09:19:47;8.30;99.90
5675;DHT22;2860;54.284;10.158;2024-02-21T09:22:13;8.60;99.90
5675;DHT22;2860;54.284;10.158;2024-02-21T09:24:38;8.90;99.90
5675;DHT22;2860;54.284;10.158;2024-02-21T09:27:04;9.00;99.90
5675;DHT22;2860;54.284;10.158;2024-02-21T09:29:31;9.00;99.90
5675;DHT22;2860;54.284;10.158;2024-02-21T09:31:58;8.90;99.90
5675;DHT22;2860;54.284;10.158;2024-02-21T09:34:24;8.70;99.90
5675;DHT22;2860;54.284;10.158;2024-02-21T09:36:49;8.50;99.90
5675;DHT22;2860;54.284;10.158;2024-02-21T09:39:15;8.60;99.90
5675;DHT22;2860;54.284;10.158;2024-02-21T09:41:47;8.70;99.90
5675;DHT22;2860;54.284;10.158;2024-02-21T09:44:13;8.80;99.90
5675;DHT22;2860;54.284;10.158;2024-02-21T09:46:56;8.90;99.90
5675;DHT22;2860;54.284;10.158;2024-02-21T09:49:33;9.00;99.90
5675;DHT22;2860;54.284;10.158;2024-02-21T09:52:05;9.00;99.90
5675;DHT22;2860;54.284;10.158;2024-02-21T09:54:35;9.00;99.90
5675;DHT22;2860;54.284;10.158;2024-02-21T09:57:02;8.90;99.90
5675;DHT22;2860;54.284;10.158;2024-02-21T09:59:29;8.80;99.90
5675;DHT22;2860;54.284;10.158;2024-02-21T10:01:55;8.80;99.90
5675;DHT22;2860;54.284;10.158;2024-02-21T10:04:21;8.60;99.90
5675;DHT22;2860;54.284;10.158;2024-02-21T10:06:46;8.50;99.90
5675;DHT22;2860;54.284;10.158;2024-02-21T10:09:28;8.50;99.90
5675;DHT22;2860;54.284;10.158;2024-02-21T10:11:54;8.60;99.90
5675;DHT22;2860;54.284;10.158;2024-02-21T10:14:20;8.60;99.90
5675;DHT22;2860;54.284;10.158;2024-02-21T10:16:48;8.80;99.90
5675;DHT22;2860;54.284;10.158;2024-02-21T10:19:20;8.80;99.90
5675;DHT22;2860;54.284;10.158;2024-02-21T10:22:02;8.80;99.90
5675;DHT22;2860;54.284;10.158;2024-02-21T10:24:29;8.80;99.90
5675;DHT22;2860;54.284;10.158;2024-02-21T10:27:05;8.80;99.90
5675;DHT22;2860;54.284;10.158;2024-02-21T10:29:33;8.80;99.90
5675;DHT22;2860;54.284;10.158;2024-02-21T10:32:14;8.70;99.90
5675;DHT22;2860;54.284;10.158;2024-02-21T10:34:41;8.80;99.90
5675;DHT22;2860;54.284;10.158;2024-02-21T10:37:10;8.90;99.90
5675;DHT22;2860;54.284;10.158;2024-02-21T10:39:39;9.20;99.90
5675;DHT22;2860;54.284;10.158;2024-02-21T10:42:05;9.30;99.90
5675;DHT22;2860;54.284;10.158;2024-02-21T10:44:33;9.30;99.90
5675;DHT22;2860;54.284;10.158;2024-02-21T10:46:59;9.50;99.90
5675;DHT22;2860;54.284;10.158;2024-02-21T10:49:26;9.70;99.90
5675;DHT22;2860;54.284;10.158;2024-02-21T10:54:56;9.70;99.90
5675;DHT22;2860;54.284;10.158;2024-02-21T10:57:26;9.90;99.90
5675;DHT22;2860;54.284;10.158;2024-02-21T10:59:53;10.10;99.90
5675;DHT22;2860;54.284;10.158;2024-02-21T11:02:20;10.20;99.90
5675;DHT22;2860;54.284;10.158;2024-02-21T11:04:46;10.30;99.90
5675;DHT22;2860;54.284;10.158;2024-02-21T11:07:13;10.40;99.90
5675;DHT22;2860;54.284;10.158;2024-02-21T11:09:39;10.40;99.90
5675;DHT22;2860;54.284;10.158;2024-02-21T11:12:06;10.60;99.90
5675;DHT22;2860;54.284;10.158;2024-02-21T11:14:32;10.70;99.90
5675;DHT22;2860;54.284;10.158;2024-02-21T11:16:58;10.70;99.90
5675;DHT22;2860;54.284;10.158;2024-02-21T11:19:27;10.70;99.90
5675;DHT22;2860;54.284;10.158;2024-02-21T11:21:54;10.60;99.90
5675;DHT22;2860;54.284;10.158;2024-02-21T11:24:31;10.70;99.90
5675;DHT22;2860;54.284;10.158;2024-02-21T11:27:20;10.60;99.90
5675;DHT22;2860;54.284;10.158;2024-02-21T11:29:53;10.70;99.90
5675;DHT22;2860;54.284;10.158;2024-02-21T11:32:20;10.80;99.90
5675;DHT22;2860;54.284;10.158;2024-02-21T11:34:59;11.00;99.90
5675;DHT22;2860;54.284;10.158;2024-02-21T11:37:29;11.20;99.90
5675;DHT22;2860;54.284;10.158;2024-02-21T11:39:55;11.20;99.90
5675;DHT22;2860;54.284;10.158;2024-02-21T11:42:21;11.00;99.90
5675;DHT22;2860;54.284;10.158;2024-02-21T11:44:47;11.00;99.90
5675;DHT22;2860;54.284;10.158;2024-02-21T11:47:14;11.00;99.90
5675;DHT22;2860;54.284;10.158;2024-02-21T11:49:45;11.10;99.90
5675;DHT22;2860;54.284;10.158;2024-02-21T11:52:12;11.10;99.90
5675;DHT22;2860;54.284;10.158;2024-02-21T11:54:40;11.20;99.90
5675;DHT22;2860;54.284;10.158;2024-02-21T11:57:06;11.20;99.90
5675;DHT22;2860;54.284;10.158;2024-02-21T11:59:32;11.30;99.90
5675;DHT22;2860;54.284;10.158;2024-02-21T12:01:59;11.30;99.90
5675;DHT22;2860;54.284;10.158;2024-02-21T12:04:25;11.30;99.90
5675;DHT22;2860;54.284;10.158;2024-02-21T12:06:52;11.20;99.90
5675;DHT22;2860;54.284;10.158;2024-02-21T12:09:18;11.20;99.90
5675;DHT22;2860;54.284;10.158;2024-02-21T12:11:45;11.20;99.90
5675;DHT22;2860;54.284;10.158;2024-02-21T12:14:15;11.20;99.90
5675;DHT22;2860;54.284;10.158;2024-02-21T12:16:41;11.20;99.90
5675;DHT22;2860;54.284;10.158;2024-02-21T12:19:07;11.20;99.90
5675;DHT22;2860;54.284;10.158;2024-02-21T12:21:34;11.30;99.90
5675;DHT22;2860;54.284;10.158;2024-02-21T12:24:12;11.40;99.90
5675;DHT22;2860;54.284;10.158;2024-02-21T12:26:38;11.40;99.90
5675;DHT22;2860;54.284;10.158;2024-02-21T12:29:04;11.40;99.90
5675;DHT22;2860;54.284;10.158;2024-02-21T12:31:29;11.40;99.90
5675;DHT22;2860;54.284;10.158;2024-02-21T12:33:55;11.30;99.90
5675;DHT22;2860;54.284;10.158;2024-02-21T12:36:20;11.40;99.90
5675;DHT22;2860;54.284;10.158;2024-02-21T12:38:46;11.30;99.90
5675;DHT22;2860;54.284;10.158;2024-02-21T12:41:14;11.30;99.90
5675;DHT22;2860;54.284;10.158;2024-02-21T12:43:40;11.30;99.90
5675;DHT22;2860;54.284;10.158;2024-02-21T12:46:05;11.30;99.90
5675;DHT22;2860;54.284;10.158;2024-02-21T12:48:33;11.30;99.90
5675;DHT22;2860;54.284;10.158;2024-02-21T12:50:58;11.10;99.90
5675;DHT22;2860;54.284;10.158;2024-02-21T12:53:24;10.90;99.90
5675;DHT22;2860;54.284;10.158;2024-02-21T12:55:50;10.80;99.90
5675;DHT22;2860;54.284;10.158;2024-02-21T12:58:16;10.70;99.90
5675;DHT22;2860;54.284;10.158;2024-02-21T13:00:42;10.70;99.90
5675;DHT22;2860;54.284;10.158;2024-02-21T13:03:08;10.80;99.90
5675;DHT22;2860;54.284;10.158;2024-02-21T13:05:38;11.00;99.90
5675;DHT22;2860;54.284;10.158;2024-02-21T13:08:07;11.10;99.90
5675;DHT22;2860;54.284;10.158;2024-02-21T13:10:33;11.20;99.90
5675;DHT22;2860;54.284;10.158;2024-02-21T13:13:00;11.20;99.90
5675;DHT22;2860;54.284;10.158;2024-02-21T13:15:25;11.20;99.90
5675;DHT22;2860;54.284;10.158;2024-02-21T13:17:53;11.20;99.90
5675;DHT22;2860;54.284;10.158;2024-02-21T13:20:19;11.10;99.90
5675;DHT22;2860;54.284;10.158;2024-02-21T13:22:45;11.10;99.90
5675;DHT22;2860;54.284;10.158;2024-02-21T13:25:10;11.00;99.90
5675;DHT22;2860;54.284;10.158;2024-02-21T13:27:36;10.90;99.90
5675;DHT22;2860;54.284;10.158;2024-02-21T13:30:02;10.70;99.90
5675;DHT22;2860;54.284;10.158;2024-02-21T13:32:31;10.60;99.90
5675;DHT22;2860;54.284;10.158;2024-02-21T13:34:57;10.50;99.90
5675;DHT22;2860;54.284;10.158;2024-02-21T13:37:25;10.50;99.90
5675;DHT22;2860;54.284;10.158;2024-02-21T13:39:52;10.40;99.90
5675;DHT22;2860;54.284;10.158;2024-02-21T13:42:18;10.40;99.90
5675;DHT22;2860;54.284;10.158;2024-02-21T13:44:44;10.30;99.90
5675;DHT22;2860;54.284;10.158;2024-02-21T13:47:10;10.30;99.90
5675;DHT22;2860;54.284;10.158;2024-02-21T13:49:38;10.30;99.90
5675;DHT22;2860;54.284;10.158;2024-02-21T13:52:04;10.30;99.90
5675;DHT22;2860;54.284;10.158;2024-02-21T13:54:30;10.30;99.90
5675;DHT22;2860;54.284;10.158;2024-02-21T13:56:55;10.30;99.90
5675;DHT22;2860;54.284;10.158;2024-02-21T13:59:21;10.10;99.90
5675;DHT22;2860;54.284;10.158;2024-02-21T14:01:46;10.10;99.90
5675;DHT22;2860;54.284;10.158;2024-02-21T14:04:12;10.00;99.90
5675;DHT22;2860;54.284;10.158;2024-02-21T14:06:37;9.90;99.90
5675;DHT22;2860;54.284;10.158;2024-02-21T14:09:11;9.80;99.90
5675;DHT22;2860;54.284;10.158;2024-02-21T14:11:37;9.80;99.90
5675;DHT22;2860;54.284;10.158;2024-02-21T14:14:04;9.70;99.90
5675;DHT22;2860;54.284;10.158;2024-02-21T14:16:30;9.70;99.90
5675;DHT22;2860;54.284;10.158;2024-02-21T14:18:55;9.60;99.90
5675;DHT22;2860;54.284;10.158;2024-02-21T14:21:21;9.60;99.90
5675;DHT22;2860;54.284;10.158;2024-02-21T14:23:46;9.50;99.90
5675;DHT22;2860;54.284;10.158;2024-02-21T14:26:12;9.40;99.90
5675;DHT22;2860;54.284;10.158;2024-02-21T14:28:37;9.50;99.90
5675;DHT22;2860;54.284;10.158;2024-02-21T14:31:03;9.50;99.90
5675;DHT22;2860;54.284;10.158;2024-02-21T14:33:31;9.50;99.90
5675;DHT22;2860;54.284;10.158;2024-02-21T14:35:56;9.50;99.90
5675;DHT22;2860;54.284;10.158;2024-02-21T14:38:22;9.50;99.90
5675;DHT22;2860;54.284;10.158;2024-02-21T14:40:48;9.50;99.90
5675;DHT22;2860;54.284;10.158;2024-02-21T14:43:14;9.50;99.90
5675;DHT22;2860;54.284;10.158;2024-02-21T14:45:39;9.50;99.90
5675;DHT22;2860;54.284;10.158;2024-02-21T14:48:05;9.40;99.90
5675;DHT22;2860;54.284;10.158;2024-02-21T14:50:31;9.40;99.90
5675;DHT22;2860;54.284;10.158;2024-02-21T14:52:56;9.30;99.90
5675;DHT22;2860;54.284;10.158;2024-02-21T14:55:22;9.30;99.90
5675;DHT22;2860;54.284;10.158;2024-02-21T14:57:49;9.30;99.90
5675;DHT22;2860;54.284;10.158;2024-02-21T15:00:15;9.20;99.90
5675;DHT22;2860;54.284;10.158;2024-02-21T15:02:40;9.20;99.90
5675;DHT22;2860;54.284;10.158;2024-02-21T15:05:06;9.20;99.90
5675;DHT22;2860;54.284;10.158;2024-02-21T15:07:32;9.10;99.90
5675;DHT22;2860;54.284;10.158;2024-02-21T15:09:58;9.20;99.90
5675;DHT22;2860;54.284;10.158;2024-02-21T15:12:24;9.20;99.90
5675;DHT22;2860;54.284;10.158;2024-02-21T15:14:50;9.20;99.90
5675;DHT22;2860;54.284;10.158;2024-02-21T15:17:16;9.20;99.90
5675;DHT22;2860;54.284;10.158;2024-02-21T15:19:41;9.20;99.90
5675;DHT22;2860;54.284;10.158;2024-02-21T15:22:12;9.20;99.90
5675;DHT22;2860;54.284;10.158;2024-02-21T15:24:41;9.10;99.90
5675;DHT22;2860;54.284;10.158;2024-02-21T15:27:08;9.10;99.90
5675;DHT22;2860;54.284;10.158;2024-02-21T15:29:34;9.10;99.90
5675;DHT22;2860;54.284;10.158;2024-02-21T15:32:01;9.00;99.90
5675;DHT22;2860;54.284;10.158;2024-02-21T15:34:27;9.00;99.90
5675;DHT22;2860;54.284;10.158;2024-02-21T15:36:53;8.90;99.90
5675;DHT22;2860;54.284;10.158;2024-02-21T15:39:18;8.90;99.90
5675;DHT22;2860;54.284;10.158;2024-02-21T15:41:44;8.90;99.90
5675;DHT22;2860;54.284;10.158;2024-02-21T15:44:09;8.90;99.90
5675;DHT22;2860;54.284;10.158;2024-02-21T15:46:35;8.80;99.90
5675;DHT22;2860;54.284;10.158;2024-02-21T15:49:02;8.80;99.90
5675;DHT22;2860;54.284;10.158;2024-02-21T15:51:28;8.80;99.90
5675;DHT22;2860;54.284;10.158;2024-02-21T15:53:55;8.80;99.90
5675;DHT22;2860;54.284;10.158;2024-02-21T15:56:21;8.70;99.90